首页
METAR-TAF:

METAR-TAF

机场 :

仁川國際機場

仁川国际机场, 大韩民国

纬度: 37-28N, 经度: 126-27E, 海拔: 7米

当前天气观测

该预报发布于26分钟前的01:30 UTC
风速4节,风向北转西北,在西东转东北之间变化
温度 23°C
湿度 50%
气压 1010 hPa
能见度10公里或以上
1500米以下无云,无积雨云

METAR: RKSI 260130Z 34004KT 270V060 CAVOK 23/12 Q1010 NOSIG

时间: 10:56 (01:56 UTC)

预报

该预报发布于2小时和56分钟前的23:00 UTC
预报有效从26日的 00点(UTC)到 27日的 06点(UTC)
风速5节,风向东北
能见度10公里或以上
1500米以下无云,无积雨云
成为
从 26日的 02点(UTC)到 26日的 03点(UTC)
风速10节,风向西转西北
成为
从 26日的 12点(UTC)到 26日的 13点(UTC)
风速6节,风向
成为
从 27日的 02点(UTC)到 27日的 03点(UTC)
风速7节,风向西

TAF: RKSI 252300Z 2600/2706 05005KT CAVOK TX25/2605Z TN15/2621Z TX23/2705Z BECMG 2602/2603 29010KT BECMG 2612/2613 19006KT BECMG 2702/2703 26007KT

超过4000个机场的气象观测和天气预报(METAR&TAF报告)。

可查询的气象台以黄色和红色小点在地图上表示。

将鼠标移到小点上方,可查看气象台名称。

然后点击查看天气观测和预报。

如需切换地图:点击带黑十字的绿色按钮放大地图;点击带横线的绿色按钮缩小地图;或者点击绿色箭头查看邻近地区的地图。


METAR-TAF: